Crystal Lake, IA (50432)

6:47 AM CST on February 23, 2018 (GMT -0600)
Home | | Change Station
Active Advisory: Winter Storm Watch

Elev 1240 ft 43.27 °N, 93.69 °W | Updated 11 seconds ago

Mostly Cloudy
Mostly Cloudy
24.4 °F
Feels Like 24 °F
N
0.0
Wind Variable Wind from SE
Gusts 0.0 mph

Today
High -- | Low -- °F
--% Chance of Precip.
Yesterday
High -- | Low -- °F
Precip. -- in
Pressure 30.12 in
Visibility 7.0 miles
Clouds Mostly Cloudy 1000 ft
Mostly Cloudy 3300 ft
Windchill 24 °F
Dew Point 23 °F
Humidity 94%
Rainfall 0.00 in
Snow Depth Not available.
7:00 AM 5:56 PM
First Quarter, 52% visible
METAR KFXY 231235Z AUTO 28007KT 7SM BKN010 BKN033 M03/M03 A3012 RMK AO2
Pressure 30.12 in
Visibility 7.0 miles
Clouds Mostly Cloudy 1000 ft
Mostly Cloudy 3300 ft
Windchill 24 °F
Dew Point 23 °F
Humidity 94%
Rainfall 0.00 in
Snow Depth Not available.
7:00 AM 5:56 PM
First Quarter, 52% visible
METAR KFXY 231235Z AUTO 28007KT 7SM BKN010 BKN033 M03/M03 A3012 RMK AO2

Get Your Daily Forecast Email!

Thanks for signing up!

Be on the lookout for a verification email in your inbox.

You'll start receiving severe weather alerts in your inbox..

×

10-Day Weather Forecast

Almanac

Astronomy

Feb. 23, 2018 Rise Set
Actual Time
Civil Twilight
Nautical Twilight
Astronomical Twilight
Moon
Length of Visible Light
Length of Day
Tomorrow will be .
, % of the Moon is Illuminated

Today's Extremes

State Highs State Lows

Community

WunderPhotos

Category 6

Welcome to Category 6. This is the collective home for Weather Underground's featured writeups by Dr. Jeff Masters (right), Bob Henson (left), Chris Burt, and other regular contributors.

Nearby

Air Quality

  Air Quality AQ Index Pollutant
Not available.

Snow Depth

Station Depth Elevation

Earthquake Activity

City Distance Mag. Time & Date
Minimum magnitude displayed is 2.5.

Coastal Water Temperatures

Place Temperature

Stations

Nearby Weather Stations

Station Location Temp. Windchill Dew Point Humidity Wind Precip. Elev Updated Type
                   

Watches & Warnings

Winter Storm Watch
Issued: 6:08 AM CST Feb. 23, 2018 – National Weather Service

... Winter Storm Watch remains in effect from Saturday morning
through late Saturday night...

* what... total snow accumulations of 4 to 7 inches, with localized
amounts up to 8 inches.

* Where... west central into northern Iowa

* when... Saturday morning through late Saturday night.

* Additional details... significant reductions in visibility are
possible, with slick, snow-covered roads. The combination of
reduced visibilities and slick roads is expected to lead to
hazardous travel conditions.

Precautionary/preparedness actions...

A Winter Storm Watch means there is potential for significant
snow, sleet or ice accumulations that may impact travel. Continue
to monitor the latest forecasts.



For more information from the National Weather Service visit
http://weather.Gov/desmoines